Time;durP1;ratioP1;P1;durP2;ratioP2;P2;SDS_P1;SDS_P2;PMS_P1;PMS_P2;Temp;Humidity;BMP_temperature;BMP_pressure;BME280_temperature;BME280_humidity;BME280_pressure;Samples;Min_cycle;Max_cycle;Signal;HPM_P1;HPM_P2
2021/06/21 00:00:19;;;;;;;6.93;2.70;;;14.70;99.90;;;;;;5041426;28;20052;-82
2021/06/21 00:03:23;;;;;;;8.23;2.90;;;14.70;99.90;;;;;;5061960;28;20069;-82
2021/06/21 00:05:49;;;;;;;8.82;2.80;;;14.70;99.90;;;;;;5058722;28;20058;-81
2021/06/21 00:08:16;;;;;;;8.00;2.95;;;14.70;99.90;;;;;;5055797;28;20082;-82
2021/06/21 00:10:42;;;;;;;4.43;2.42;;;14.60;99.90;;;;;;5059506;28;20942;-82
2021/06/21 00:13:09;;;;;;;5.35;2.28;;;14.60;99.90;;;;;;5056651;28;20044;-82
2021/06/21 00:15:35;;;;;;;8.75;2.55;;;14.70;99.90;;;;;;5058318;28;20036;-82
2021/06/21 00:18:01;;;;;;;8.63;2.75;;;14.60;99.90;;;;;;5055650;28;20481;-83
2021/06/21 00:20:27;;;;;;;6.70;2.33;;;14.60;99.90;;;;;;5064065;28;20033;-82
2021/06/21 00:22:55;;;;;;;6.47;2.60;;;14.60;99.90;;;;;;5082469;28;20029;-81
2021/06/21 00:25:22;;;;;;;7.45;2.72;;;14.60;99.90;;;;;;5099911;28;20100;-82
2021/06/21 00:27:48;;;;;;;5.07;2.53;;;14.60;99.90;;;;;;5090602;28;20052;-81
2021/06/21 00:30:16;;;;;;;6.72;2.47;;;14.50;99.90;;;;;;5059963;28;20139;-81
2021/06/21 00:32:43;;;;;;;9.38;2.80;;;14.50;99.90;;;;;;5062107;28;20475;-81
2021/06/21 00:35:10;;;;;;;8.80;2.58;;;14.50;99.90;;;;;;5065954;28;20057;-81
2021/06/21 00:37:37;;;;;;;5.68;2.67;;;14.60;99.90;;;;;;5046010;28;20556;-81
2021/06/21 00:40:06;;;;;;;4.50;2.25;;;14.40;99.90;;;;;;5059857;28;20041;-82
2021/06/21 00:42:34;;;;;;;5.25;2.28;;;14.50;99.90;;;;;;5057398;28;20032;-81
2021/06/21 00:44:59;;;;;;;4.15;2.00;;;14.50;99.90;;;;;;5074493;28;20045;-82
2021/06/21 00:47:25;;;;;;;5.85;2.17;;;14.40;99.90;;;;;;5056924;28;20047;-82
2021/06/21 00:49:51;;;;;;;3.25;2.10;;;14.40;99.90;;;;;;5055054;28;20042;-82
2021/06/21 00:52:21;;;;;;;5.53;2.03;;;14.30;99.90;;;;;;5045656;28;20572;-82
2021/06/21 00:54:47;;;;;;;4.25;2.17;;;14.40;99.90;;;;;;5056604;28;20059;-81
2021/06/21 00:57:14;;;;;;;6.65;2.78;;;14.40;99.90;;;;;;5058795;28;20029;-81
2021/06/21 00:59:40;;;;;;;7.15;2.58;;;14.30;99.90;;;;;;5057382;28;20515;-82
2021/06/21 01:02:06;;;;;;;5.95;2.00;;;14.40;99.90;;;;;;5072552;28;20040;-81
2021/06/21 01:04:32;;;;;;;5.05;1.92;;;14.40;99.90;;;;;;5061691;28;20055;-82
2021/06/21 01:06:58;;;;;;;4.85;2.20;;;14.40;99.90;;;;;;5060737;28;20481;-81
2021/06/21 01:09:24;;;;;;;5.93;2.30;;;14.40;99.90;;;;;;5059322;28;20036;-82
2021/06/21 01:12:01;;;;;;;7.30;2.25;;;14.40;99.90;;;;;;5064132;28;20063;-80
2021/06/21 01:14:33;;;;;;;4.30;2.05;;;14.30;99.90;;;;;;5057206;28;20041;-81
2021/06/21 01:17:29;;;;;;;11.40;2.65;;;14.30;99.90;;;;;;5057095;28;20051;-81
2021/06/21 01:20:14;;;;;;;5.13;2.38;;;14.40;99.90;;;;;;5054454;28;20041;-82
2021/06/21 01:22:55;;;;;;;6.03;2.28;;;14.40;99.90;;;;;;5063601;28;20029;-82
2021/06/21 01:25:32;;;;;;;7.13;1.85;;;14.40;99.90;;;;;;5061063;28;20036;-81
2021/06/21 01:28:56;;;;;;;6.28;2.30;;;14.40;99.90;;;;;;5060061;28;20072;-81
2021/06/21 01:32:02;;;;;;;7.35;2.40;;;14.40;99.90;;;;;;5052928;28;20053;-81
2021/06/21 01:34:29;;;;;;;4.28;2.28;;;14.40;99.90;;;;;;5035067;28;20077;-80
2021/06/21 01:37:00;;;;;;;6.25;1.95;;;14.50;99.90;;;;;;5017772;28;20068;-81
2021/06/21 01:39:28;;;;;;;8.27;2.00;;;14.50;99.90;;;;;;5024853;28;20048;-81
2021/06/21 01:42:02;;;;;;;8.23;2.40;;;14.40;99.90;;;;;;5032878;28;20132;-81
2021/06/21 01:44:31;;;;;;;4.28;1.85;;;14.50;99.90;;;;;;5020148;28;20040;-82
2021/06/21 01:46:59;;;;;;;3.40;1.52;;;14.40;99.90;;;;;;5038476;28;20543;-82
2021/06/21 01:49:30;;;;;;;10.38;2.10;;;14.50;99.90;;;;;;5021161;28;20141;-82
2021/06/21 01:51:59;;;;;;;5.40;1.70;;;14.50;99.90;;;;;;5031659;28;20044;-80
2021/06/21 01:54:29;;;;;;;6.82;1.90;;;14.40;99.90;;;;;;5023738;28;20052;-81
2021/06/21 01:56:58;;;;;;;5.78;2.38;;;14.50;99.90;;;;;;5023497;28;20160;-81
2021/06/21 01:59:26;;;;;;;3.28;1.98;;;14.40;99.90;;;;;;5029948;28;20033;-82
2021/06/21 02:01:54;;;;;;;4.97;2.25;;;14.50;99.90;;;;;;5037969;28;20534;-80
2021/06/21 02:04:22;;;;;;;6.70;2.55;;;14.50;99.90;;;;;;5035702;28;20049;-80
2021/06/21 02:06:50;;;;;;;3.65;2.28;;;14.50;99.90;;;;;;5038610;28;20045;-81
2021/06/21 02:09:22;;;;;;;7.80;2.40;;;14.50;99.90;;;;;;5024454;28;20472;-79
2021/06/21 02:11:50;;;;;;;9.00;2.65;;;14.50;99.90;;;;;;5059767;28;20054;-81
2021/06/21 02:14:22;;;;;;;5.70;2.75;;;14.50;99.90;;;;;;5060690;28;20043;-82
2021/06/21 02:16:52;;;;;;;8.93;2.92;;;14.50;99.90;;;;;;5063314;28;20055;-81
2021/06/21 02:19:20;;;;;;;4.28;2.70;;;14.50;99.90;;;;;;5061572;28;20473;-80
2021/06/21 02:21:48;;;;;;;9.77;3.53;;;14.50;99.90;;;;;;5061958;28;20037;-81
2021/06/21 02:24:16;;;;;;;11.25;3.30;;;14.50;99.90;;;;;;5060131;28;20049;-80
2021/06/21 02:26:44;;;;;;;13.45;3.63;;;14.50;99.90;;;;;;5070088;28;20040;-81
2021/06/21 02:29:11;;;;;;;11.18;3.25;;;14.50;99.90;;;;;;5064536;28;20056;-82
2021/06/21 02:31:37;;;;;;;12.02;3.20;;;14.50;99.90;;;;;;5064023;28;20128;-80
2021/06/21 02:34:04;;;;;;;9.00;3.25;;;14.50;99.90;;;;;;5060993;28;20064;-81
2021/06/21 02:36:30;;;;;;;14.13;3.38;;;14.50;99.90;;;;;;5057572;28;20053;-81
2021/06/21 02:38:59;;;;;;;9.05;2.45;;;14.50;99.90;;;;;;5058453;28;20834;-80
2021/06/21 02:41:25;;;;;;;7.60;2.55;;;14.50;99.90;;;;;;5058616;28;20779;-80
2021/06/21 02:43:51;;;;;;;13.02;3.05;;;14.40;99.90;;;;;;5063907;28;20484;-82
2021/06/21 02:46:17;;;;;;;11.68;2.90;;;14.40;99.90;;;;;;5062881;28;20041;-81
2021/06/21 02:48:44;;;;;;;11.70;2.70;;;14.40;99.90;;;;;;5060073;28;20044;-81
2021/06/21 02:51:15;;;;;;;14.45;3.33;;;14.40;99.90;;;;;;5063600;28;20086;-80
2021/06/21 02:53:49;;;;;;;8.65;2.50;;;14.40;99.90;;;;;;5055588;28;20048;-80
2021/06/21 02:56:52;;;;;;;9.07;3.03;;;14.40;99.90;;;;;;5058674;28;20053;-81
2021/06/21 02:59:21;;;;;;;10.20;2.83;;;14.30;99.90;;;;;;5057781;28;20294;-81
2021/06/21 03:01:55;;;;;;;12.70;3.00;;;14.40;99.90;;;;;;5060337;28;20036;-81
2021/06/21 03:04:22;;;;;;;10.68;2.97;;;14.30;99.90;;;;;;5062554;28;20038;-81
2021/06/21 03:06:51;;;;;;;10.25;2.83;;;14.20;99.90;;;;;;5059817;28;20515;-81
2021/06/21 03:09:19;;;;;;;9.07;2.58;;;14.20;99.90;;;;;;5065069;28;20157;-80
2021/06/21 03:11:50;;;;;;;8.30;2.58;;;14.20;99.90;;;;;;5065708;28;20084;-81
2021/06/21 03:14:20;;;;;;;11.57;2.90;;;14.10;99.90;;;;;;5059044;28;20036;-81
2021/06/21 03:16:46;;;;;;;11.32;3.10;;;14.10;99.90;;;;;;5063089;28;20108;-81
2021/06/21 03:19:13;;;;;;;10.63;3.10;;;14.10;99.90;;;;;;5057787;28;20045;-81
2021/06/21 03:21:42;;;;;;;9.13;2.85;;;14.20;99.90;;;;;;5068571;28;20028;-80
2021/06/21 03:24:13;;;;;;;10.73;2.67;;;14.10;99.90;;;;;;5064459;28;20033;-80
2021/06/21 03:26:40;;;;;;;11.98;2.83;;;14.10;99.90;;;;;;5065211;28;20039;-80
2021/06/21 03:29:17;;;;;;;8.80;2.78;;;14.00;99.90;;;;;;5072614;28;20059;-80
2021/06/21 03:31:45;;;;;;;10.48;2.80;;;13.90;99.90;;;;;;5064766;28;20055;-79
2021/06/21 03:34:12;;;;;;;12.77;3.47;;;14.00;99.90;;;;;;5064388;28;20064;-80
2021/06/21 03:36:39;;;;;;;8.88;2.80;;;13.90;99.90;;;;;;5063633;28;20067;-81
2021/06/21 03:39:06;;;;;;;10.40;2.92;;;13.90;99.90;;;;;;5057383;28;20395;-81
2021/06/21 03:41:32;;;;;;;12.57;3.58;;;13.90;99.90;;;;;;5055038;28;20116;-80
2021/06/21 03:43:58;;;;;;;10.48;3.03;;;13.90;99.90;;;;;;5060459;28;20036;-81
2021/06/21 03:46:24;;;;;;;12.77;3.30;;;13.80;99.90;;;;;;5066613;28;20041;-80
2021/06/21 03:48:49;;;;;;;8.88;3.10;;;13.80;99.90;;;;;;5060851;28;20043;-81
2021/06/21 03:51:15;;;;;;;11.88;3.28;;;13.80;99.90;;;;;;5064884;28;20032;-81
2021/06/21 03:53:41;;;;;;;9.77;3.33;;;13.80;99.90;;;;;;5055619;28;20103;-80
2021/06/21 03:56:07;;;;;;;11.00;3.28;;;13.80;99.90;;;;;;5063266;28;20044;-80
2021/06/21 03:58:32;;;;;;;9.75;3.20;;;13.80;99.90;;;;;;5063851;28;20037;-80
2021/06/21 04:00:58;;;;;;;11.80;3.60;;;13.80;99.90;;;;;;5068662;28;20048;-81
2021/06/21 04:03:24;;;;;;;16.33;3.80;;;13.80;99.90;;;;;;5067570;28;20029;-80
2021/06/21 04:05:51;;;;;;;8.23;3.05;;;13.80;99.90;;;;;;5069959;28;20028;-81
2021/06/21 04:08:17;;;;;;;10.70;3.75;;;13.70;99.90;;;;;;5068898;28;20094;-80
2021/06/21 04:10:47;;;;;;;10.15;3.28;;;13.80;99.90;;;;;;5083765;28;20404;-81
2021/06/21 04:13:15;;;;;;;13.98;3.88;;;13.70;99.90;;;;;;5038619;28;20453;-80
2021/06/21 04:15:42;;;;;;;9.02;3.28;;;13.80;99.90;;;;;;5055871;28;20555;-80
2021/06/21 04:18:10;;;;;;;9.80;3.50;;;13.70;99.90;;;;;;5060762;28;20075;-80
2021/06/21 04:20:38;;;;;;;8.70;3.70;;;13.70;99.90;;;;;;5054234;28;20094;-80
2021/06/21 04:23:06;;;;;;;10.85;3.83;;;13.70;99.90;;;;;;5062612;28;20037;-80
2021/06/21 04:25:33;;;;;;;12.98;4.00;;;13.70;99.90;;;;;;5058939;28;20032;-79
2021/06/21 04:28:05;;;;;;;10.43;3.92;;;13.80;99.90;;;;;;5061913;28;20780;-80
2021/06/21 04:30:35;;;;;;;13.43;4.25;;;13.80;99.90;;;;;;5060121;28;20128;-81
2021/06/21 04:33:02;;;;;;;10.82;4.05;;;13.80;99.90;;;;;;5063422;28;20044;-81
2021/06/21 04:35:28;;;;;;;12.90;4.50;;;13.70;99.90;;;;;;5057845;28;20038;-80
2021/06/21 04:37:55;;;;;;;13.13;4.47;;;13.70;99.90;;;;;;5061465;28;20430;-80
2021/06/21 04:40:24;;;;;;;12.48;4.53;;;13.70;99.90;;;;;;5054061;28;20043;-82
2021/06/21 04:42:50;;;;;;;11.43;4.50;;;13.70;99.90;;;;;;5054223;28;20346;-82
2021/06/21 04:45:16;;;;;;;13.10;4.53;;;13.70;99.90;;;;;;5059153;28;20055;-80
2021/06/21 04:47:42;;;;;;;12.70;4.28;;;13.60;99.90;;;;;;5059041;28;20068;-79
2021/06/21 04:50:12;;;;;;;12.70;4.85;;;13.60;99.90;;;;;;5059077;28;20563;-81
2021/06/21 04:52:42;;;;;;;11.10;4.10;;;13.70;99.90;;;;;;5064819;28;20048;-82
2021/06/21 04:55:09;;;;;;;14.45;4.85;;;13.60;99.90;;;;;;5055978;28;20064;-80
2021/06/21 04:57:35;;;;;;;10.13;4.03;;;13.70;99.90;;;;;;5061588;28;20036;-80
2021/06/21 05:00:08;;;;;;;11.55;4.32;;;13.60;99.90;;;;;;5060407;28;20032;-82
2021/06/21 05:02:34;;;;;;;9.68;4.72;;;13.70;99.90;;;;;;5061427;28;20037;-80
2021/06/21 05:05:00;;;;;;;14.85;5.07;;;13.60;99.90;;;;;;5063735;28;20060;-81
2021/06/21 05:07:26;;;;;;;12.77;5.00;;;13.50;99.90;;;;;;5051458;28;20158;-81
2021/06/21 05:09:51;;;;;;;13.55;4.45;;;13.60;99.90;;;;;;5043351;28;20068;-80
2021/06/21 05:12:17;;;;;;;12.30;4.72;;;13.50;99.90;;;;;;5060714;28;20033;-80
2021/06/21 05:14:46;;;;;;;11.30;3.85;;;13.60;99.90;;;;;;5060022;28;20059;-79
2021/06/21 05:17:13;;;;;;;16.33;4.93;;;13.60;99.90;;;;;;5060911;28;20053;-79
2021/06/21 05:19:39;;;;;;;15.98;4.80;;;13.60;99.90;;;;;;5056085;28;20048;-80
2021/06/21 05:22:06;;;;;;;12.07;3.95;;;13.60;99.90;;;;;;5059362;28;20041;-79
2021/06/21 05:24:33;;;;;;;14.45;4.25;;;13.60;99.90;;;;;;5063914;28;20032;-78
2021/06/21 05:26:59;;;;;;;13.15;4.57;;;13.50;99.90;;;;;;5056782;28;20036;-79
2021/06/21 05:29:25;;;;;;;12.23;4.53;;;13.50;99.90;;;;;;5067835;28;20066;-81
2021/06/21 05:31:51;;;;;;;12.10;4.63;;;13.50;99.90;;;;;;5067476;28;20056;-79
2021/06/21 05:34:17;;;;;;;14.25;4.43;;;13.60;99.90;;;;;;5063140;28;20112;-81
2021/06/21 05:36:43;;;;;;;16.15;4.68;;;13.60;99.90;;;;;;5062554;28;20115;-81
2021/06/21 05:39:09;;;;;;;12.52;4.30;;;13.60;99.90;;;;;;5061144;28;20039;-78
2021/06/21 05:41:34;;;;;;;17.38;4.45;;;13.60;99.90;;;;;;5066755;28;20053;-78
2021/06/21 05:44:00;;;;;;;12.57;4.40;;;13.60;99.90;;;;;;5058120;28;20353;-77
2021/06/21 05:46:26;;;;;;;13.45;3.45;;;13.60;99.90;;;;;;5056887;28;20029;-76
2021/06/21 05:48:52;;;;;;;20.13;4.65;;;13.80;99.90;;;;;;5063757;28;20037;-76
2021/06/21 05:51:17;;;;;;;12.02;4.40;;;13.60;99.90;;;;;;5063743;28;20035;-78
2021/06/21 05:53:43;;;;;;;20.25;3.97;;;13.70;99.90;;;;;;5066520;28;20434;-78
2021/06/21 05:56:09;;;;;;;11.65;3.70;;;13.70;99.90;;;;;;5066279;28;20037;-80
2021/06/21 05:58:35;;;;;;;13.48;4.30;;;13.70;99.90;;;;;;5066722;28;20056;-77
2021/06/21 06:01:00;;;;;;;13.60;3.88;;;13.80;99.90;;;;;;5058518;28;20495;-78
2021/06/21 06:03:26;;;;;;;15.65;3.88;;;13.80;99.90;;;;;;5066942;28;20119;-80
2021/06/21 06:05:52;;;;;;;15.98;4.18;;;13.80;99.90;;;;;;5068467;28;20036;-79
2021/06/21 06:08:19;;;;;;;14.50;4.38;;;13.80;99.90;;;;;;5056585;28;20134;-78
2021/06/21 06:10:45;;;;;;;15.65;4.97;;;13.90;99.90;;;;;;5068128;28;20077;-80
2021/06/21 06:13:11;;;;;;;18.25;4.20;;;13.80;99.90;;;;;;5063778;28;20365;-78
2021/06/21 06:15:38;;;;;;;14.23;4.05;;;14.00;99.90;;;;;;5065075;28;20044;-78
2021/06/21 06:18:04;;;;;;;12.50;4.07;;;13.90;99.90;;;;;;5058661;28;20041;-79
2021/06/21 06:20:30;;;;;;;16.27;4.07;;;13.90;99.90;;;;;;5064785;28;20120;-79
2021/06/21 06:22:58;;;;;;;17.20;4.45;;;13.90;99.90;;;;;;5067567;28;20044;-79
2021/06/21 06:25:25;;;;;;;13.00;3.60;;;13.90;99.90;;;;;;5060590;28;20106;-77
2021/06/21 06:27:51;;;;;;;14.40;3.97;;;14.00;99.90;;;;;;5063004;28;20488;-76
2021/06/21 06:30:17;;;;;;;12.07;3.53;;;14.00;99.90;;;;;;5071914;28;20037;-76
2021/06/21 06:32:43;;;;;;;24.20;4.25;;;14.00;99.90;;;;;;5059052;28;20044;-79
2021/06/21 06:35:10;;;;;;;13.30;3.70;;;14.00;99.90;;;;;;5062758;28;20056;-80
2021/06/21 06:37:36;;;;;;;10.63;3.53;;;14.00;99.90;;;;;;5060325;28;20047;-79
2021/06/21 06:40:03;;;;;;;13.85;4.10;;;14.10;99.90;;;;;;5062387;28;20033;-77
2021/06/21 06:42:28;;;;;;;11.57;3.33;;;14.00;99.90;;;;;;5062902;28;20524;-78
2021/06/21 06:44:55;;;;;;;13.88;3.65;;;14.00;99.90;;;;;;5064416;28;20052;-79
2021/06/21 06:47:21;;;;;;;13.50;3.45;;;13.90;99.90;;;;;;5065794;28;20037;-80
2021/06/21 06:49:46;;;;;;;11.82;3.20;;;13.90;99.90;;;;;;5063245;28;20407;-77
2021/06/21 06:52:15;;;;;;;17.23;3.40;;;13.90;99.90;;;;;;5055450;28;20137;-80
2021/06/21 06:57:25;;;;;;;13.07;3.13;;;14.10;99.90;;;;;;5051708;28;20071;-81
2021/06/21 06:59:51;;;;;;;11.90;3.65;;;14.00;99.90;;;;;;5069997;28;20029;-80
2021/06/21 07:02:22;;;;;;;10.63;2.60;;;14.00;99.90;;;;;;5061963;28;20048;-81
2021/06/21 07:04:48;;;;;;;14.27;3.00;;;14.00;99.90;;;;;;5054085;28;20087;-81
2021/06/21 07:07:14;;;;;;;13.85;3.42;;;14.00;99.90;;;;;;5058574;28;20512;-81
2021/06/21 07:09:40;;;;;;;12.82;3.10;;;14.00;99.90;;;;;;5055196;28;20057;-82
2021/06/21 07:12:07;;;;;;;10.52;3.10;;;14.00;99.90;;;;;;5070897;28;20082;-81
2021/06/21 07:14:33;;;;;;;9.85;2.60;;;14.00;99.90;;;;;;5071329;28;20314;-82
2021/06/21 07:17:00;;;;;;;13.57;3.25;;;14.00;99.90;;;;;;5061601;28;20491;-80
2021/06/21 07:19:26;;;;;;;11.05;2.90;;;14.30;99.90;;;;;;5042759;28;20102;-83
2021/06/21 07:21:53;;;;;;;6.63;2.83;;;14.10;99.90;;;;;;5062192;28;20083;-80
2021/06/21 07:24:21;;;;;;;8.80;3.13;;;14.10;99.90;;;;;;5065917;28;20045;-81
2021/06/21 07:26:49;;;;;;;7.65;2.85;;;14.20;99.90;;;;;;5069478;28;20464;-80
2021/06/21 07:29:16;;;;;;;9.73;2.90;;;14.10;99.90;;;;;;5033600;28;20385;-82
2021/06/21 07:31:42;;;;;;;9.75;2.60;;;14.00;99.90;;;;;;5062784;28;20070;-80
2021/06/21 07:34:13;;;;;;;8.88;2.58;;;14.10;99.90;;;;;;5060215;28;20236;-83
2021/06/21 07:36:39;;;;;;;9.15;2.35;;;14.10;99.90;;;;;;5064952;28;20472;-84
2021/06/21 07:39:09;;;;;;;10.98;2.45;;;14.00;99.90;;;;;;5047098;28;20050;-81
2021/06/21 07:41:35;;;;;;;10.20;2.20;;;14.00;99.90;;;;;;5066377;28;20049;-77
2021/06/21 07:44:01;;;;;;;8.13;2.70;;;13.90;99.90;;;;;;5065384;28;20108;-78
2021/06/21 07:46:27;;;;;;;6.30;2.42;;;14.00;99.90;;;;;;5064120;28;20095;-80
2021/06/21 07:48:54;;;;;;;8.20;2.63;;;13.90;99.90;;;;;;5057568;28;20051;-81
2021/06/21 07:51:23;;;;;;;5.90;2.28;;;13.90;99.90;;;;;;5069455;28;20604;-82
2021/06/21 07:53:51;;;;;;;10.10;2.70;;;13.90;99.90;;;;;;5065662;28;20035;-83
2021/06/21 07:56:22;;;;;;;8.68;2.50;;;13.90;99.90;;;;;;5064269;28;20041;-84
2021/06/21 07:58:49;;;;;;;11.73;2.75;;;13.90;99.90;;;;;;5059741;28;20033;-87
2021/06/21 08:01:16;;;;;;;7.25;2.53;;;14.00;99.90;;;;;;5069953;28;20043;-86
2021/06/21 08:03:43;;;;;;;9.75;2.80;;;14.00;99.90;;;;;;5067080;28;20101;-85
2021/06/21 08:06:13;;;;;;;12.45;2.72;;;14.10;99.90;;;;;;5067357;28;20032;-78
2021/06/21 08:08:43;;;;;;;11.52;2.72;;;14.10;99.90;;;;;;5038106;28;20093;-78
2021/06/21 08:11:11;;;;;;;12.73;3.13;;;14.00;99.90;;;;;;5056198;28;20033;-81
2021/06/21 08:13:37;;;;;;;8.00;2.28;;;14.00;99.90;;;;;;5075204;28;20488;-83
2021/06/21 08:16:04;;;;;;;16.05;3.40;;;14.00;99.90;;;;;;5061341;28;20036;-81
2021/06/21 08:18:29;;;;;;;13.70;2.30;;;14.10;99.90;;;;;;5066191;28;20041;-81
2021/06/21 08:20:55;;;;;;;16.98;2.60;;;14.10;99.90;;;;;;5060599;28;20068;-80
2021/06/21 08:23:24;;;;;;;8.73;2.30;;;14.00;99.90;;;;;;5053136;28;20048;-80
2021/06/21 08:25:52;;;;;;;10.75;2.97;;;14.00;99.90;;;;;;5062580;28;20059;-82
2021/06/21 08:28:18;;;;;;;10.43;2.50;;;14.00;99.90;;;;;;5062059;28;20035;-81
2021/06/21 08:30:46;;;;;;;21.50;2.83;;;14.10;99.90;;;;;;5056632;28;20468;-84
2021/06/21 08:33:12;;;;;;;11.13;3.13;;;14.10;99.90;;;;;;5076058;28;20114;-82
2021/06/21 08:35:38;;;;;;;13.73;3.33;;;14.10;99.90;;;;;;5053165;28;20099;-82
2021/06/21 08:38:05;;;;;;;9.50;2.42;;;13.90;99.90;;;;;;5076332;28;20063;-82
2021/06/21 08:40:33;;;;;;;15.88;3.33;;;14.00;99.90;;;;;;5041869;28;20040;-82
2021/06/21 08:43:01;;;;;;;16.27;3.20;;;14.00;99.90;;;;;;5066197;28;20108;-82
2021/06/21 08:45:30;;;;;;;16.15;3.53;;;14.00;99.90;;;;;;5064735;28;20559;-84
2021/06/21 08:47:57;;;;;;;12.05;3.22;;;14.00;99.90;;;;;;5053594;28;20081;-89
2021/06/21 08:50:26;;;;;;;11.18;2.55;;;14.10;99.90;;;;;;5046958;28;20081;-86
2021/06/21 08:53:01;;;;;;;11.98;2.92;;;14.10;99.90;;;;;;5057855;28;20041;-88
2021/06/21 08:55:57;;;;;;;9.98;2.47;;;14.00;99.90;;;;;;5085821;28;20155;-86
2021/06/21 08:58:40;;;;;;;12.85;3.08;;;14.10;99.90;;;;;;5090194;28;20534;-86
2021/06/21 09:01:12;;;;;;;9.40;2.30;;;14.20;99.90;;;;;;5087314;28;20075;-88
2021/06/21 09:03:38;;;;;;;7.57;2.25;;;14.00;99.90;;;;;;5077566;28;20079;-87
2021/06/21 09:06:26;;;;;;;7.00;2.22;;;13.90;99.90;;;;;;5074654;28;20060;-86
2021/06/21 09:08:57;;;;;;;8.65;1.75;;;14.00;99.90;;;;;;5084012;28;20512;-87
2021/06/21 09:11:44;;;;;;;7.70;2.30;;;13.90;99.90;;;;;;5073150;28;20036;-83
2021/06/21 09:14:25;;;;;;;11.75;2.10;;;13.90;99.90;;;;;;5082820;28;20064;-80
2021/06/21 09:16:59;;;;;;;10.90;2.17;;;13.90;99.90;;;;;;5083688;28;20225;-80
2021/06/21 09:19:25;;;;;;;4.43;1.73;;;13.80;99.90;;;;;;5081925;28;20052;-81
2021/06/21 09:21:52;;;;;;;7.57;2.00;;;13.90;99.90;;;;;;5086053;28;20114;-81
2021/06/21 09:24:23;;;;;;;8.77;1.92;;;13.90;99.90;;;;;;5080843;28;20051;-78
2021/06/21 09:26:51;;;;;;;7.97;2.20;;;13.80;99.90;;;;;;5071622;28;20045;-78
2021/06/21 09:29:30;;;;;;;6.60;1.98;;;13.70;99.90;;;;;;5063121;28;20496;-79
2021/06/21 09:31:57;;;;;;;8.05;2.20;;;13.80;99.90;;;;;;5062448;28;20087;-78
2021/06/21 09:34:25;;;;;;;4.40;1.58;;;13.90;99.90;;;;;;5060904;28;20082;-81
2021/06/21 09:36:53;;;;;;;7.45;2.38;;;13.80;99.90;;;;;;5039764;28;20504;-76
2021/06/21 09:39:27;;;;;;;6.93;1.90;;;13.70;99.90;;;;;;5059112;28;20048;-77
2021/06/21 09:42:10;;;;;;;10.60;2.10;;;13.70;99.90;;;;;;5062310;28;20056;-78
2021/06/21 09:44:39;;;;;;;7.47;1.98;;;13.60;99.90;;;;;;5070192;28;20071;-77
2021/06/21 09:47:20;;;;;;;9.73;2.22;;;13.60;99.90;;;;;;5069398;28;20044;-78
2021/06/21 09:49:52;;;;;;;8.55;1.98;;;13.60;99.90;;;;;;5070032;28;20033;-78
2021/06/21 09:52:36;;;;;;;8.88;2.33;;;13.60;99.90;;;;;;5071994;28;20068;-78
2021/06/21 09:55:36;;;;;;;11.80;2.00;;;13.50;99.90;;;;;;5061983;28;20476;-77
2021/06/21 09:58:06;;;;;;;9.43;2.22;;;13.50;99.90;;;;;;5062569;28;20121;-75
2021/06/21 10:00:33;;;;;;;4.90;1.90;;;13.60;99.90;;;;;;5053793;28;20060;-76
2021/06/21 10:03:26;;;;;;;9.00;2.40;;;13.50;99.90;;;;;;5067239;28;20032;-76
2021/06/21 10:06:07;;;;;;;6.43;2.17;;;13.50;99.90;;;;;;5080036;28;20056;-76
2021/06/21 10:08:39;;;;;;;8.30;2.33;;;13.40;99.90;;;;;;5054579;28;20044;-76
2021/06/21 10:11:25;;;;;;;5.93;2.08;;;13.50;99.90;;;;;;5056043;28;20102;-76
2021/06/21 10:13:51;;;;;;;6.85;1.77;;;13.60;99.90;;;;;;5071091;28;20040;-78
2021/06/21 10:16:16;;;;;;;12.65;2.30;;;13.50;99.90;;;;;;5057789;28;20071;-78
2021/06/21 10:18:42;;;;;;;9.82;2.08;;;13.50;99.90;;;;;;5068828;28;20032;-78
2021/06/21 10:21:08;;;;;;;7.00;2.00;;;13.60;99.90;;;;;;5051026;28;20120;-78
2021/06/21 10:23:34;;;;;;;10.07;2.45;;;13.60;99.90;;;;;;5071249;28;20025;-78
2021/06/21 10:25:59;;;;;;;10.15;2.22;;;13.70;99.90;;;;;;5069697;28;20078;-78
2021/06/21 10:28:26;;;;;;;6.60;2.00;;;13.80;99.90;;;;;;5064280;28;20123;-78
2021/06/21 10:30:52;;;;;;;8.93;2.30;;;13.80;99.90;;;;;;5057767;28;20119;-78
2021/06/21 10:33:17;;;;;;;9.65;2.30;;;13.80;99.90;;;;;;5066263;28;20099;-78
2021/06/21 10:35:43;;;;;;;14.63;2.10;;;13.70;99.90;;;;;;5074026;28;20061;-78
2021/06/21 10:38:09;;;;;;;11.73;2.03;;;13.70;99.90;;;;;;5059506;28;20052;-75
2021/06/21 10:41:02;;;;;;;8.52;1.90;;;13.80;99.90;;;;;;5064580;28;20061;-77
2021/06/21 10:43:40;;;;;;;7.57;1.77;;;13.70;99.90;;;;;;5064720;28;20075;-77
2021/06/21 10:46:29;;;;;;;9.90;2.45;;;13.70;99.90;;;;;;5053657;28;20041;-77
2021/06/21 10:48:57;;;;;;;8.93;2.50;;;13.70;99.90;;;;;;5055143;28;20624;-76
2021/06/21 10:51:37;;;;;;;9.45;2.60;;;13.70;99.90;;;;;;5065086;28;20123;-77
2021/06/21 10:54:05;;;;;;;7.20;2.03;;;13.80;99.90;;;;;;5062674;28;20040;-76
2021/06/21 10:56:44;;;;;;;8.48;2.15;;;13.70;99.90;;;;;;5064842;28;20040;-79
2021/06/21 10:59:17;;;;;;;11.73;2.30;;;13.70;99.90;;;;;;5062071;28;20067;-76
2021/06/21 11:01:51;;;;;;;6.80;1.88;;;13.80;99.90;;;;;;5061759;28;20478;-76
2021/06/21 11:04:39;;;;;;;9.05;2.00;;;13.80;99.90;;;;;;5057968;28;20127;-78
2021/06/21 11:07:12;;;;;;;8.73;1.85;;;13.70;99.90;;;;;;5064102;28;20099;-78
2021/06/21 11:10:06;;;;;;;10.27;2.05;;;13.60;99.90;;;;;;5062515;28;20049;-79
2021/06/21 11:12:33;;;;;;;8.15;2.28;;;13.70;99.90;;;;;;5063030;28;20052;-79
2021/06/21 11:15:08;;;;;;;10.50;2.40;;;13.70;99.90;;;;;;5061416;28;20045;-78
2021/06/21 11:17:43;;;;;;;7.35;1.80;;;13.60;99.90;;;;;;5057262;28;20032;-79
2021/06/21 11:20:28;;;;;;;9.13;1.92;;;13.70;99.90;;;;;;5059178;28;20052;-78
2021/06/21 11:22:59;;;;;;;8.20;1.92;;;13.60;99.90;;;;;;5059887;28;20067;-80
2021/06/21 11:25:27;;;;;;;9.40;1.85;;;13.70;99.90;;;;;;5065134;28;20052;-79
2021/06/21 11:27:53;;;;;;;13.70;2.50;;;13.70;99.90;;;;;;5066387;28;20487;-80
2021/06/21 11:30:41;;;;;;;9.68;2.53;;;13.70;99.90;;;;;;5063709;28;20503;-81
2021/06/21 11:33:14;;;;;;;8.15;2.20;;;13.70;99.90;;;;;;5066831;28;20044;-81
2021/06/21 11:36:03;;;;;;;9.05;2.38;;;13.70;99.90;;;;;;5061616;28;20041;-76
2021/06/21 11:38:35;;;;;;;6.47;1.73;;;13.80;99.90;;;;;;5065581;28;20052;-76
2021/06/21 11:41:18;;;;;;;8.10;1.85;;;13.80;99.90;;;;;;5065184;28;20542;-76
2021/06/21 11:43:47;;;;;;;10.60;2.42;;;13.70;99.90;;;;;;5065438;28;20052;-77
2021/06/21 11:46:40;;;;;;;11.40;2.65;;;13.70;99.90;;;;;;5065295;28;20143;-77
2021/06/21 11:49:21;;;;;;;11.50;2.55;;;13.70;99.90;;;;;;5062663;28;20052;-77
2021/06/21 11:52:03;;;;;;;12.27;2.65;;;13.90;99.90;;;;;;5065184;28;20359;-78
2021/06/21 11:54:36;;;;;;;13.52;2.70;;;13.80;99.90;;;;;;5063478;28;20484;-78
2021/06/21 11:57:02;;;;;;;14.85;2.28;;;13.90;99.90;;;;;;5063965;28;20053;-78
2021/06/21 11:59:39;;;;;;;11.88;2.90;;;13.90;99.90;;;;;;5068728;28;20036;-78
2021/06/21 12:02:18;;;;;;;5.90;1.90;;;14.00;99.90;;;;;;5060855;28;20067;-78
2021/06/21 12:04:45;;;;;;;13.88;2.65;;;14.00;99.90;;;;;;5063013;28;20047;-78
2021/06/21 12:07:28;;;;;;;9.88;2.60;;;14.00;99.90;;;;;;5061244;28;20037;-80
2021/06/21 12:09:55;;;;;;;7.75;1.88;;;14.10;99.90;;;;;;5064369;28;20033;-81
2021/06/21 12:12:22;;;;;;;6.05;1.88;;;14.00;99.90;;;;;;5058666;28;20034;-81
2021/06/21 12:14:49;;;;;;;6.60;2.17;;;13.90;99.90;;;;;;5049316;28;20477;-80
2021/06/21 12:17:20;;;;;;;9.05;2.10;;;13.80;99.90;;;;;;5061583;28;20040;-81
2021/06/21 12:20:01;;;;;;;7.03;2.20;;;13.80;99.90;;;;;;5076525;28;20057;-81
2021/06/21 12:22:27;;;;;;;8.43;2.33;;;13.70;99.90;;;;;;5057269;28;20052;-81
2021/06/21 12:24:53;;;;;;;8.68;2.35;;;13.80;99.90;;;;;;5054448;28;20068;-80
2021/06/21 12:27:19;;;;;;;10.48;2.50;;;13.90;99.90;;;;;;5057016;28;20048;-80
2021/06/21 12:29:44;;;;;;;10.77;2.08;;;14.00;99.90;;;;;;5064999;28;20139;-80
2021/06/21 12:32:12;;;;;;;7.80;2.42;;;14.00;99.90;;;;;;5060118;28;20071;-81
2021/06/21 12:34:57;;;;;;;8.02;2.13;;;14.10;99.90;;;;;;5061205;28;20115;-84
2021/06/21 12:37:37;;;;;;;11.57;2.58;;;14.10;99.90;;;;;;5063306;28;20106;-83
2021/06/21 12:40:12;;;;;;;10.80;2.83;;;14.10;99.90;;;;;;5056213;28;20076;-83
2021/06/21 12:42:38;;;;;;;9.60;2.70;;;14.10;99.90;;;;;;5056545;28;20057;-82
2021/06/21 12:45:11;;;;;;;12.02;2.97;;;14.10;99.90;;;;;;5044826;28;20048;-84
2021/06/21 12:47:46;;;;;;;10.75;2.90;;;14.20;99.90;;;;;;5056457;28;20048;-85
2021/06/21 12:50:18;;;;;;;11.20;2.83;;;14.10;99.90;;;;;;5059304;28;20044;-85
2021/06/21 12:52:48;;;;;;;13.63;2.95;;;14.20;99.90;;;;;;5065320;28;20468;-84
2021/06/21 12:55:17;;;;;;;11.00;3.13;;;14.10;99.90;;;;;;5058724;28;20034;-85
2021/06/21 12:57:50;;;;;;;9.68;2.55;;;14.10;99.90;;;;;;5061407;28;20036;-84